sensor_id;sensor_type;location;lat;lon;timestamp;P1;durP1;ratioP1;P2;durP2;ratioP2
42488;SDS011;28118;52.388;9.452;2022-07-23T00:00:14;13.30;;;9.63;;
42488;SDS011;28118;52.388;9.452;2022-07-23T00:02:41;13.77;;;9.27;;
42488;SDS011;28118;52.388;9.452;2022-07-23T00:05:08;9.73;;;8.65;;
42488;SDS011;28118;52.388;9.452;2022-07-23T00:07:36;10.10;;;8.52;;
42488;SDS011;28118;52.388;9.452;2022-07-23T00:10:03;10.13;;;9.15;;
42488;SDS011;28118;52.388;9.452;2022-07-23T00:12:31;11.70;;;9.82;;
42488;SDS011;28118;52.388;9.452;2022-07-23T00:14:57;11.60;;;10.60;;
42488;SDS011;28118;52.388;9.452;2022-07-23T00:17:24;10.50;;;9.50;;
42488;SDS011;28118;52.388;9.452;2022-07-23T00:19:51;11.30;;;9.45;;
42488;SDS011;28118;52.388;9.452;2022-07-23T00:22:19;13.10;;;9.73;;
42488;SDS011;28118;52.388;9.452;2022-07-23T00:24:45;10.65;;;9.57;;
42488;SDS011;28118;52.388;9.452;2022-07-23T00:27:32;11.50;;;8.57;;
42488;SDS011;28118;52.388;9.452;2022-07-23T00:29:58;10.95;;;9.13;;
42488;SDS011;28118;52.388;9.452;2022-07-23T00:32:25;18.63;;;10.98;;
42488;SDS011;28118;52.388;9.452;2022-07-23T00:35:12;11.85;;;9.80;;
42488;SDS011;28118;52.388;9.452;2022-07-23T00:37:38;17.10;;;10.00;;
42488;SDS011;28118;52.388;9.452;2022-07-23T00:40:05;14.07;;;10.10;;
42488;SDS011;28118;52.388;9.452;2022-07-23T00:42:32;11.77;;;9.63;;
42488;SDS011;28118;52.388;9.452;2022-07-23T00:44:59;15.13;;;10.18;;
42488;SDS011;28118;52.388;9.452;2022-07-23T00:47:26;10.95;;;9.73;;
42488;SDS011;28118;52.388;9.452;2022-07-23T00:49:52;17.45;;;10.50;;
42488;SDS011;28118;52.388;9.452;2022-07-23T00:52:19;11.30;;;10.23;;
42488;SDS011;28118;52.388;9.452;2022-07-23T00:54:46;12.18;;;8.85;;
42488;SDS011;28118;52.388;9.452;2022-07-23T00:57:13;9.45;;;8.57;;
42488;SDS011;28118;52.388;9.452;2022-07-23T00:59:40;12.45;;;9.13;;
42488;SDS011;28118;52.388;9.452;2022-07-23T01:02:06;18.90;;;9.75;;
42488;SDS011;28118;52.388;9.452;2022-07-23T01:04:33;10.85;;;9.27;;
42488;SDS011;28118;52.388;9.452;2022-07-23T01:07:00;11.02;;;9.93;;
42488;SDS011;28118;52.388;9.452;2022-07-23T01:09:27;11.60;;;10.25;;
42488;SDS011;28118;52.388;9.452;2022-07-23T01:11:55;23.25;;;10.85;;
42488;SDS011;28118;52.388;9.452;2022-07-23T01:14:23;20.52;;;12.40;;
42488;SDS011;28118;52.388;9.452;2022-07-23T01:16:49;13.25;;;10.35;;
42488;SDS011;28118;52.388;9.452;2022-07-23T01:19:17;10.00;;;9.02;;
42488;SDS011;28118;52.388;9.452;2022-07-23T01:21:46;9.38;;;8.50;;
42488;SDS011;28118;52.388;9.452;2022-07-23T01:24:14;14.05;;;11.07;;
42488;SDS011;28118;52.388;9.452;2022-07-23T01:26:42;13.10;;;11.38;;
42488;SDS011;28118;52.388;9.452;2022-07-23T01:29:10;12.80;;;10.80;;
42488;SDS011;28118;52.388;9.452;2022-07-23T01:31:37;14.23;;;12.15;;
42488;SDS011;28118;52.388;9.452;2022-07-23T01:34:04;10.98;;;9.88;;
42488;SDS011;28118;52.388;9.452;2022-07-23T01:36:33;10.40;;;9.40;;
42488;SDS011;28118;52.388;9.452;2022-07-23T01:39:01;15.60;;;9.57;;
42488;SDS011;28118;52.388;9.452;2022-07-23T01:41:30;18.63;;;11.13;;
42488;SDS011;28118;52.388;9.452;2022-07-23T01:43:58;12.35;;;11.15;;
42488;SDS011;28118;52.388;9.452;2022-07-23T01:46:25;11.48;;;10.43;;
42488;SDS011;28118;52.388;9.452;2022-07-23T01:48:52;12.48;;;11.13;;
42488;SDS011;28118;52.388;9.452;2022-07-23T01:51:19;11.45;;;10.35;;
42488;SDS011;28118;52.388;9.452;2022-07-23T01:53:45;19.70;;;11.07;;
42488;SDS011;28118;52.388;9.452;2022-07-23T01:56:12;13.93;;;10.23;;
42488;SDS011;28118;52.388;9.452;2022-07-23T01:58:41;13.48;;;12.15;;
42488;SDS011;28118;52.388;9.452;2022-07-23T02:01:07;10.80;;;9.80;;
42488;SDS011;28118;52.388;9.452;2022-07-23T02:03:34;14.60;;;13.20;;
42488;SDS011;28118;52.388;9.452;2022-07-23T02:06:01;12.13;;;10.27;;
42488;SDS011;28118;52.388;9.452;2022-07-23T02:08:28;11.88;;;10.25;;
42488;SDS011;28118;52.388;9.452;2022-07-23T02:10:54;12.75;;;11.55;;
42488;SDS011;28118;52.388;9.452;2022-07-23T02:13:21;16.67;;;11.20;;
42488;SDS011;28118;52.388;9.452;2022-07-23T02:15:48;15.90;;;9.80;;
42488;SDS011;28118;52.388;9.452;2022-07-23T02:18:15;20.88;;;11.00;;
42488;SDS011;28118;52.388;9.452;2022-07-23T02:20:41;16.83;;;10.65;;
42488;SDS011;28118;52.388;9.452;2022-07-23T02:23:08;13.50;;;11.88;;
42488;SDS011;28118;52.388;9.452;2022-07-23T02:25:35;13.60;;;11.30;;
42488;SDS011;28118;52.388;9.452;2022-07-23T02:28:02;10.80;;;9.77;;
42488;SDS011;28118;52.388;9.452;2022-07-23T02:30:29;15.43;;;11.40;;
42488;SDS011;28118;52.388;9.452;2022-07-23T02:32:55;11.38;;;10.27;;
42488;SDS011;28118;52.388;9.452;2022-07-23T02:35:22;11.13;;;10.05;;
42488;SDS011;28118;52.388;9.452;2022-07-23T02:37:49;12.50;;;11.20;;
42488;SDS011;28118;52.388;9.452;2022-07-23T02:40:16;12.93;;;11.73;;
42488;SDS011;28118;52.388;9.452;2022-07-23T02:42:44;14.98;;;11.82;;
42488;SDS011;28118;52.388;9.452;2022-07-23T02:45:11;12.60;;;11.45;;
42488;SDS011;28118;52.388;9.452;2022-07-23T02:47:37;21.10;;;12.55;;
42488;SDS011;28118;52.388;9.452;2022-07-23T02:50:04;14.18;;;12.25;;
42488;SDS011;28118;52.388;9.452;2022-07-23T02:52:32;16.13;;;12.95;;
42488;SDS011;28118;52.388;9.452;2022-07-23T02:54:59;13.40;;;12.00;;
42488;SDS011;28118;52.388;9.452;2022-07-23T02:57:26;26.00;;;12.82;;
42488;SDS011;28118;52.388;9.452;2022-07-23T02:59:53;18.15;;;11.70;;
42488;SDS011;28118;52.388;9.452;2022-07-23T03:02:19;14.05;;;12.13;;
42488;SDS011;28118;52.388;9.452;2022-07-23T03:04:46;9.70;;;8.88;;
42488;SDS011;28118;52.388;9.452;2022-07-23T03:07:13;16.73;;;12.18;;
42488;SDS011;28118;52.388;9.452;2022-07-23T03:09:39;23.13;;;12.77;;
42488;SDS011;28118;52.388;9.452;2022-07-23T03:12:06;15.20;;;13.10;;
42488;SDS011;28118;52.388;9.452;2022-07-23T03:14:39;10.45;;;9.50;;
42488;SDS011;28118;52.388;9.452;2022-07-23T03:17:08;14.65;;;12.80;;
42488;SDS011;28118;52.388;9.452;2022-07-23T03:19:35;16.33;;;13.30;;
42488;SDS011;28118;52.388;9.452;2022-07-23T03:22:03;15.55;;;12.30;;
42488;SDS011;28118;52.388;9.452;2022-07-23T03:24:30;14.45;;;11.45;;
42488;SDS011;28118;52.388;9.452;2022-07-23T03:27:16;14.38;;;12.82;;
42488;SDS011;28118;52.388;9.452;2022-07-23T03:29:42;15.15;;;13.50;;
42488;SDS011;28118;52.388;9.452;2022-07-23T03:32:09;23.85;;;13.65;;
42488;SDS011;28118;52.388;9.452;2022-07-23T03:34:36;15.93;;;14.20;;
42488;SDS011;28118;52.388;9.452;2022-07-23T03:37:02;14.98;;;12.55;;
42488;SDS011;28118;52.388;9.452;2022-07-23T03:39:31;15.95;;;14.23;;
42488;SDS011;28118;52.388;9.452;2022-07-23T03:41:57;20.58;;;14.35;;
42488;SDS011;28118;52.388;9.452;2022-07-23T03:44:24;12.18;;;10.30;;
42488;SDS011;28118;52.388;9.452;2022-07-23T03:46:51;14.80;;;12.25;;
42488;SDS011;28118;52.388;9.452;2022-07-23T03:49:18;14.27;;;13.05;;
42488;SDS011;28118;52.388;9.452;2022-07-23T03:51:45;13.48;;;10.98;;
42488;SDS011;28118;52.388;9.452;2022-07-23T03:54:12;15.18;;;13.60;;
42488;SDS011;28118;52.388;9.452;2022-07-23T03:56:39;14.80;;;12.98;;
42488;SDS011;28118;52.388;9.452;2022-07-23T03:59:05;15.40;;;11.52;;
42488;SDS011;28118;52.388;9.452;2022-07-23T04:01:32;16.05;;;14.40;;
42488;SDS011;28118;52.388;9.452;2022-07-23T04:03:59;17.80;;;13.75;;
42488;SDS011;28118;52.388;9.452;2022-07-23T04:06:26;13.27;;;11.90;;
42488;SDS011;28118;52.388;9.452;2022-07-23T04:08:53;14.57;;;12.20;;
42488;SDS011;28118;52.388;9.452;2022-07-23T04:11:19;14.18;;;12.75;;
42488;SDS011;28118;52.388;9.452;2022-07-23T04:13:46;13.80;;;12.40;;
42488;SDS011;28118;52.388;9.452;2022-07-23T04:16:13;11.88;;;10.55;;
42488;SDS011;28118;52.388;9.452;2022-07-23T04:18:40;12.35;;;11.00;;
42488;SDS011;28118;52.388;9.452;2022-07-23T04:21:06;13.98;;;12.57;;
42488;SDS011;28118;52.388;9.452;2022-07-23T04:23:33;12.80;;;11.55;;
42488;SDS011;28118;52.388;9.452;2022-07-23T04:26:00;13.15;;;12.18;;
42488;SDS011;28118;52.388;9.452;2022-07-23T04:28:27;16.23;;;12.13;;
42488;SDS011;28118;52.388;9.452;2022-07-23T04:30:55;15.00;;;13.35;;
42488;SDS011;28118;52.388;9.452;2022-07-23T04:33:23;13.45;;;12.05;;
42488;SDS011;28118;52.388;9.452;2022-07-23T04:35:50;29.70;;;15.25;;
42488;SDS011;28118;52.388;9.452;2022-07-23T04:38:18;15.93;;;13.13;;
42488;SDS011;28118;52.388;9.452;2022-07-23T04:40:45;21.55;;;12.23;;
42488;SDS011;28118;52.388;9.452;2022-07-23T04:43:12;16.02;;;11.02;;
42488;SDS011;28118;52.388;9.452;2022-07-23T04:45:39;12.75;;;11.57;;
42488;SDS011;28118;52.388;9.452;2022-07-23T04:48:05;14.13;;;12.18;;
42488;SDS011;28118;52.388;9.452;2022-07-23T04:50:32;14.48;;;10.55;;
42488;SDS011;28118;52.388;9.452;2022-07-23T04:52:59;14.98;;;13.40;;
42488;SDS011;28118;52.388;9.452;2022-07-23T04:55:26;14.80;;;13.32;;
42488;SDS011;28118;52.388;9.452;2022-07-23T04:57:52;13.85;;;11.15;;
42488;SDS011;28118;52.388;9.452;2022-07-23T05:00:19;14.18;;;12.77;;
42488;SDS011;28118;52.388;9.452;2022-07-23T05:02:46;17.65;;;14.07;;
42488;SDS011;28118;52.388;9.452;2022-07-23T05:05:12;17.63;;;11.60;;
42488;SDS011;28118;52.388;9.452;2022-07-23T05:07:39;11.63;;;10.48;;
42488;SDS011;28118;52.388;9.452;2022-07-23T05:10:06;13.63;;;12.32;;
42488;SDS011;28118;52.388;9.452;2022-07-23T05:12:33;17.90;;;15.88;;
42488;SDS011;28118;52.388;9.452;2022-07-23T05:14:59;13.10;;;10.52;;
42488;SDS011;28118;52.388;9.452;2022-07-23T05:17:26;20.73;;;14.48;;
42488;SDS011;28118;52.388;9.452;2022-07-23T05:19:53;16.33;;;12.95;;
42488;SDS011;28118;52.388;9.452;2022-07-23T05:22:25;18.23;;;13.43;;
42488;SDS011;28118;52.388;9.452;2022-07-23T05:24:52;16.40;;;14.90;;
42488;SDS011;28118;52.388;9.452;2022-07-23T05:27:19;17.02;;;14.38;;
42488;SDS011;28118;52.388;9.452;2022-07-23T05:29:46;16.15;;;14.57;;
42488;SDS011;28118;52.388;9.452;2022-07-23T05:32:12;23.58;;;14.70;;
42488;SDS011;28118;52.388;9.452;2022-07-23T05:34:39;15.30;;;13.80;;
42488;SDS011;28118;52.388;9.452;2022-07-23T05:37:06;14.75;;;13.45;;
42488;SDS011;28118;52.388;9.452;2022-07-23T05:39:32;16.98;;;13.70;;
42488;SDS011;28118;52.388;9.452;2022-07-23T05:41:59;16.83;;;13.50;;
42488;SDS011;28118;52.388;9.452;2022-07-23T05:44:26;14.35;;;12.73;;
42488;SDS011;28118;52.388;9.452;2022-07-23T05:46:59;23.80;;;14.43;;
42488;SDS011;28118;52.388;9.452;2022-07-23T05:49:26;21.75;;;16.80;;
42488;SDS011;28118;52.388;9.452;2022-07-23T05:51:53;20.13;;;17.13;;
42488;SDS011;28118;52.388;9.452;2022-07-23T05:54:20;17.38;;;15.52;;
42488;SDS011;28118;52.388;9.452;2022-07-23T05:56:47;17.70;;;15.98;;
42488;SDS011;28118;52.388;9.452;2022-07-23T05:59:13;17.25;;;14.27;;
42488;SDS011;28118;52.388;9.452;2022-07-23T06:01:41;14.80;;;13.30;;
42488;SDS011;28118;52.388;9.452;2022-07-23T06:04:08;19.35;;;15.88;;
42488;SDS011;28118;52.388;9.452;2022-07-23T06:06:35;18.38;;;16.48;;
42488;SDS011;28118;52.388;9.452;2022-07-23T06:09:02;17.45;;;15.73;;
42488;SDS011;28118;52.388;9.452;2022-07-23T06:11:29;19.95;;;16.52;;
42488;SDS011;28118;52.388;9.452;2022-07-23T06:13:56;15.10;;;13.45;;
42488;SDS011;28118;52.388;9.452;2022-07-23T06:16:23;16.35;;;14.70;;
42488;SDS011;28118;52.388;9.452;2022-07-23T06:18:49;16.00;;;14.32;;
42488;SDS011;28118;52.388;9.452;2022-07-23T06:21:16;15.82;;;14.32;;
42488;SDS011;28118;52.388;9.452;2022-07-23T06:24:03;19.80;;;15.02;;
42488;SDS011;28118;52.388;9.452;2022-07-23T06:26:30;18.63;;;14.35;;
42488;SDS011;28118;52.388;9.452;2022-07-23T06:28:56;17.90;;;14.98;;
42488;SDS011;28118;52.388;9.452;2022-07-23T06:31:23;15.68;;;14.32;;
42488;SDS011;28118;52.388;9.452;2022-07-23T06:33:50;15.80;;;13.05;;
42488;SDS011;28118;52.388;9.452;2022-07-23T06:36:17;17.17;;;13.40;;
42488;SDS011;28118;52.388;9.452;2022-07-23T06:38:44;19.83;;;15.13;;
42488;SDS011;28118;52.388;9.452;2022-07-23T06:41:10;18.58;;;12.55;;
42488;SDS011;28118;52.388;9.452;2022-07-23T06:43:37;14.30;;;11.75;;
42488;SDS011;28118;52.388;9.452;2022-07-23T06:46:04;15.25;;;11.60;;
42488;SDS011;28118;52.388;9.452;2022-07-23T06:48:31;12.07;;;10.80;;
42488;SDS011;28118;52.388;9.452;2022-07-23T06:51:00;14.30;;;10.52;;
42488;SDS011;28118;52.388;9.452;2022-07-23T06:53:27;14.32;;;12.85;;
42488;SDS011;28118;52.388;9.452;2022-07-23T06:55:55;14.77;;;11.90;;
42488;SDS011;28118;52.388;9.452;2022-07-23T06:58:22;11.65;;;10.55;;
42488;SDS011;28118;52.388;9.452;2022-07-23T07:00:48;11.90;;;10.73;;
42488;SDS011;28118;52.388;9.452;2022-07-23T07:03:16;13.65;;;9.90;;
42488;SDS011;28118;52.388;9.452;2022-07-23T07:05:43;13.13;;;11.80;;
42488;SDS011;28118;52.388;9.452;2022-07-23T07:08:10;21.00;;;11.85;;
42488;SDS011;28118;52.388;9.452;2022-07-23T07:10:37;13.10;;;11.32;;
42488;SDS011;28118;52.388;9.452;2022-07-23T07:13:03;12.88;;;10.57;;
42488;SDS011;28118;52.388;9.452;2022-07-23T07:15:30;13.20;;;11.70;;
42488;SDS011;28118;52.388;9.452;2022-07-23T07:17:57;19.83;;;11.05;;
42488;SDS011;28118;52.388;9.452;2022-07-23T07:20:23;10.32;;;9.38;;
42488;SDS011;28118;52.388;9.452;2022-07-23T07:22:50;13.23;;;10.57;;
42488;SDS011;28118;52.388;9.452;2022-07-23T07:25:17;17.33;;;11.52;;
42488;SDS011;28118;52.388;9.452;2022-07-23T07:27:44;12.00;;;9.05;;
42488;SDS011;28118;52.388;9.452;2022-07-23T07:30:11;9.18;;;7.90;;
42488;SDS011;28118;52.388;9.452;2022-07-23T07:32:39;11.43;;;8.48;;
42488;SDS011;28118;52.388;9.452;2022-07-23T07:35:23;9.82;;;7.85;;
42488;SDS011;28118;52.388;9.452;2022-07-23T07:37:50;8.00;;;7.18;;
42488;SDS011;28118;52.388;9.452;2022-07-23T07:40:17;12.07;;;6.03;;
42488;SDS011;28118;52.388;9.452;2022-07-23T07:42:44;7.28;;;5.95;;
42488;SDS011;28118;52.388;9.452;2022-07-23T07:45:15;8.32;;;7.47;;
42488;SDS011;28118;52.388;9.452;2022-07-23T07:47:42;10.57;;;6.80;;
42488;SDS011;28118;52.388;9.452;2022-07-23T07:50:09;6.32;;;5.57;;
42488;SDS011;28118;52.388;9.452;2022-07-23T07:52:37;14.48;;;6.18;;
42488;SDS011;28118;52.388;9.452;2022-07-23T07:55:05;10.80;;;6.50;;
42488;SDS011;28118;52.388;9.452;2022-07-23T07:57:34;12.88;;;6.50;;
42488;SDS011;28118;52.388;9.452;2022-07-23T08:00:02;6.00;;;5.40;;
42488;SDS011;28118;52.388;9.452;2022-07-23T08:05:22;5.53;;;5.03;;
42488;SDS011;28118;52.388;9.452;2022-07-23T08:07:54;12.30;;;6.32;;
42488;SDS011;28118;52.388;9.452;2022-07-23T08:10:22;9.80;;;5.18;;
42488;SDS011;28118;52.388;9.452;2022-07-23T08:12:51;6.85;;;4.95;;
42488;SDS011;28118;52.388;9.452;2022-07-23T08:15:23;9.32;;;5.20;;
42488;SDS011;28118;52.388;9.452;2022-07-23T08:17:51;5.60;;;5.10;;
42488;SDS011;28118;52.388;9.452;2022-07-23T08:20:20;6.82;;;5.10;;
42488;SDS011;28118;52.388;9.452;2022-07-23T08:25:25;5.07;;;4.45;;
42488;SDS011;28118;52.388;9.452;2022-07-23T08:27:57;4.18;;;3.88;;
42488;SDS011;28118;52.388;9.452;2022-07-23T08:30:25;7.32;;;4.03;;
42488;SDS011;28118;52.388;9.452;2022-07-23T08:38:14;5.93;;;2.67;;
42488;SDS011;28118;52.388;9.452;2022-07-23T08:40:52;5.13;;;3.67;;
42488;SDS011;28118;52.388;9.452;2022-07-23T08:43:21;4.90;;;4.50;;
42488;SDS011;28118;52.388;9.452;2022-07-23T08:45:50;16.83;;;5.05;;
42488;SDS011;28118;52.388;9.452;2022-07-23T08:48:19;6.68;;;4.90;;
42488;SDS011;28118;52.388;9.452;2022-07-23T08:50:51;7.60;;;4.35;;
42488;SDS011;28118;52.388;9.452;2022-07-23T08:53:24;5.07;;;2.85;;
42488;SDS011;28118;52.388;9.452;2022-07-23T08:55:52;4.63;;;3.42;;
42488;SDS011;28118;52.388;9.452;2022-07-23T08:58:21;5.65;;;3.05;;
42488;SDS011;28118;52.388;9.452;2022-07-23T09:03:21;5.22;;;4.72;;
42488;SDS011;28118;52.388;9.452;2022-07-23T09:05:50;4.32;;;3.85;;
42488;SDS011;28118;52.388;9.452;2022-07-23T09:08:19;5.03;;;3.95;;
42488;SDS011;28118;52.388;9.452;2022-07-23T09:10:58;7.20;;;6.00;;
42488;SDS011;28118;52.388;9.452;2022-07-23T09:13:28;24.33;;;5.32;;
42488;SDS011;28118;52.388;9.452;2022-07-23T09:15:56;6.45;;;4.10;;
42488;SDS011;28118;52.388;9.452;2022-07-23T09:18:37;5.63;;;4.93;;
42488;SDS011;28118;52.388;9.452;2022-07-23T09:21:07;6.93;;;5.13;;
42488;SDS011;28118;52.388;9.452;2022-07-23T09:23:50;3.90;;;3.55;;
42488;SDS011;28118;52.388;9.452;2022-07-23T09:31:41;4.22;;;3.83;;
42488;SDS011;28118;52.388;9.452;2022-07-23T09:34:14;4.30;;;2.97;;
42488;SDS011;28118;52.388;9.452;2022-07-23T09:36:52;10.05;;;3.40;;
42488;SDS011;28118;52.388;9.452;2022-07-23T09:41:57;6.30;;;2.85;;
42488;SDS011;28118;52.388;9.452;2022-07-23T09:44:42;3.95;;;3.47;;
42488;SDS011;28118;52.388;9.452;2022-07-23T09:47:10;13.32;;;4.65;;
42488;SDS011;28118;52.388;9.452;2022-07-23T09:49:36;6.13;;;3.33;;
42488;SDS011;28118;52.388;9.452;2022-07-23T09:52:03;3.47;;;3.17;;
42488;SDS011;28118;52.388;9.452;2022-07-23T09:57:04;6.50;;;4.20;;
42488;SDS011;28118;52.388;9.452;2022-07-23T09:59:36;5.30;;;3.75;;
42488;SDS011;28118;52.388;9.452;2022-07-23T10:02:04;4.22;;;3.75;;
42488;SDS011;28118;52.388;9.452;2022-07-23T10:04:33;4.20;;;3.25;;
42488;SDS011;28118;52.388;9.452;2022-07-23T10:07:04;3.50;;;3.20;;
42488;SDS011;28118;52.388;9.452;2022-07-23T10:09:35;7.13;;;3.22;;
42488;SDS011;28118;52.388;9.452;2022-07-23T10:12:04;3.17;;;2.85;;
42488;SDS011;28118;52.388;9.452;2022-07-23T10:14:53;5.35;;;2.38;;
42488;SDS011;28118;52.388;9.452;2022-07-23T10:17:22;3.53;;;3.22;;
42488;SDS011;28118;52.388;9.452;2022-07-23T10:19:49;9.85;;;3.83;;
42488;SDS011;28118;52.388;9.452;2022-07-23T10:25:37;7.45;;;3.40;;
42488;SDS011;28118;52.388;9.452;2022-07-23T10:34:21;2.58;;;2.05;;
42488;SDS011;28118;52.388;9.452;2022-07-23T10:40:23;2.67;;;2.47;;
42488;SDS011;28118;52.388;9.452;2022-07-23T10:42:49;2.80;;;2.30;;
42488;SDS011;28118;52.388;9.452;2022-07-23T10:45:23;2.83;;;2.22;;
42488;SDS011;28118;52.388;9.452;2022-07-23T10:47:50;3.90;;;2.13;;
42488;SDS011;28118;52.388;9.452;2022-07-23T10:50:27;3.58;;;2.28;;
42488;SDS011;28118;52.388;9.452;2022-07-23T10:58:02;3.05;;;1.63;;
42488;SDS011;28118;52.388;9.452;2022-07-23T11:00:30;3.25;;;2.20;;
42488;SDS011;28118;52.388;9.452;2022-07-23T11:03:05;3.20;;;2.28;;
42488;SDS011;28118;52.388;9.452;2022-07-23T11:06:06;1.80;;;1.50;;
42488;SDS011;28118;52.388;9.452;2022-07-23T11:08:33;2.53;;;1.70;;
42488;SDS011;28118;52.388;9.452;2022-07-23T11:13:30;2.75;;;2.28;;
42488;SDS011;28118;52.388;9.452;2022-07-23T11:23:58;7.97;;;2.20;;
42488;SDS011;28118;52.388;9.452;2022-07-23T11:31:58;2.75;;;1.40;;
42488;SDS011;28118;52.388;9.452;2022-07-23T11:36:58;1.70;;;1.55;;
42488;SDS011;28118;52.388;9.452;2022-07-23T11:39:26;4.95;;;1.70;;
42488;SDS011;28118;52.388;9.452;2022-07-23T11:41:53;1.85;;;1.20;;
42488;SDS011;28118;52.388;9.452;2022-07-23T11:44:28;3.28;;;1.70;;
42488;SDS011;28118;52.388;9.452;2022-07-23T11:46:58;3.75;;;1.90;;
42488;SDS011;28118;52.388;9.452;2022-07-23T11:49:27;5.05;;;1.20;;
42488;SDS011;28118;52.388;9.452;2022-07-23T11:54:33;2.53;;;1.65;;
42488;SDS011;28118;52.388;9.452;2022-07-23T11:57:05;3.65;;;1.77;;
42488;SDS011;28118;52.388;9.452;2022-07-23T11:59:33;3.15;;;2.00;;
42488;SDS011;28118;52.388;9.452;2022-07-23T12:02:03;6.30;;;2.25;;
42488;SDS011;28118;52.388;9.452;2022-07-23T12:04:41;3.13;;;2.00;;
42488;SDS011;28118;52.388;9.452;2022-07-23T12:07:28;3.22;;;1.60;;
42488;SDS011;28118;52.388;9.452;2022-07-23T12:09:59;3.05;;;1.55;;
42488;SDS011;28118;52.388;9.452;2022-07-23T12:12:38;4.90;;;1.40;;
42488;SDS011;28118;52.388;9.452;2022-07-23T12:15:07;4.03;;;2.30;;
42488;SDS011;28118;52.388;9.452;2022-07-23T12:17:35;2.28;;;1.38;;
42488;SDS011;28118;52.388;9.452;2022-07-23T12:20:05;4.63;;;1.20;;
42488;SDS011;28118;52.388;9.452;2022-07-23T12:22:35;5.25;;;1.50;;
42488;SDS011;28118;52.388;9.452;2022-07-23T12:25:07;2.30;;;1.48;;
42488;SDS011;28118;52.388;9.452;2022-07-23T12:27:43;3.40;;;1.70;;
42488;SDS011;28118;52.388;9.452;2022-07-23T12:30:23;2.40;;;0.82;;
42488;SDS011;28118;52.388;9.452;2022-07-23T12:32:59;1.42;;;0.93;;
42488;SDS011;28118;52.388;9.452;2022-07-23T12:35:33;2.35;;;1.30;;
42488;SDS011;28118;52.388;9.452;2022-07-23T12:38:12;1.33;;;1.00;;
42488;SDS011;28118;52.388;9.452;2022-07-23T12:40:44;3.72;;;1.48;;
42488;SDS011;28118;52.388;9.452;2022-07-23T12:48:18;6.38;;;1.55;;
42488;SDS011;28118;52.388;9.452;2022-07-23T12:51:08;4.78;;;1.52;;
42488;SDS011;28118;52.388;9.452;2022-07-23T12:53:44;1.40;;;1.00;;
42488;SDS011;28118;52.388;9.452;2022-07-23T12:58:46;1.55;;;1.05;;
42488;SDS011;28118;52.388;9.452;2022-07-23T13:01:25;2.03;;;1.52;;
42488;SDS011;28118;52.388;9.452;2022-07-23T13:03:57;2.40;;;1.30;;
42488;SDS011;28118;52.388;9.452;2022-07-23T13:06:49;3.83;;;1.35;;
42488;SDS011;28118;52.388;9.452;2022-07-23T13:09:17;9.55;;;1.83;;
42488;SDS011;28118;52.388;9.452;2022-07-23T13:11:48;7.38;;;1.10;;
42488;SDS011;28118;52.388;9.452;2022-07-23T13:14:16;0.95;;;0.63;;
42488;SDS011;28118;52.388;9.452;2022-07-23T13:16:46;5.40;;;1.15;;
42488;SDS011;28118;52.388;9.452;2022-07-23T13:19:16;1.90;;;1.02;;
42488;SDS011;28118;52.388;9.452;2022-07-23T13:21:44;3.30;;;1.60;;
42488;SDS011;28118;52.388;9.452;2022-07-23T13:24:12;4.85;;;1.08;;
42488;SDS011;28118;52.388;9.452;2022-07-23T13:26:39;4.45;;;1.88;;
42488;SDS011;28118;52.388;9.452;2022-07-23T13:29:06;1.70;;;0.90;;
42488;SDS011;28118;52.388;9.452;2022-07-23T13:31:52;1.48;;;0.85;;
42488;SDS011;28118;52.388;9.452;2022-07-23T13:34:19;2.13;;;1.80;;
42488;SDS011;28118;52.388;9.452;2022-07-23T13:36:46;1.33;;;0.73;;
42488;SDS011;28118;52.388;9.452;2022-07-23T13:39:13;2.42;;;1.40;;
42488;SDS011;28118;52.388;9.452;2022-07-23T13:41:40;1.48;;;1.17;;
42488;SDS011;28118;52.388;9.452;2022-07-23T13:44:16;1.65;;;1.00;;
42488;SDS011;28118;52.388;9.452;2022-07-23T13:46:43;2.08;;;1.42;;
42488;SDS011;28118;52.388;9.452;2022-07-23T13:49:13;2.22;;;1.38;;
42488;SDS011;28118;52.388;9.452;2022-07-23T13:51:40;2.63;;;1.63;;
42488;SDS011;28118;52.388;9.452;2022-07-23T13:54:07;2.72;;;1.33;;
42488;SDS011;28118;52.388;9.452;2022-07-23T13:56:34;5.53;;;1.45;;
42488;SDS011;28118;52.388;9.452;2022-07-23T13:59:02;3.53;;;1.85;;
42488;SDS011;28118;52.388;9.452;2022-07-23T14:01:32;1.50;;;1.10;;
42488;SDS011;28118;52.388;9.452;2022-07-23T14:04:15;2.88;;;1.00;;
42488;SDS011;28118;52.388;9.452;2022-07-23T14:06:43;2.63;;;1.42;;
42488;SDS011;28118;52.388;9.452;2022-07-23T14:09:18;1.95;;;1.13;;
42488;SDS011;28118;52.388;9.452;2022-07-23T14:11:44;1.98;;;1.13;;
42488;SDS011;28118;52.388;9.452;2022-07-23T14:14:11;9.15;;;1.73;;
42488;SDS011;28118;52.388;9.452;2022-07-23T14:16:38;5.72;;;1.50;;
42488;SDS011;28118;52.388;9.452;2022-07-23T14:19:05;4.25;;;1.48;;
42488;SDS011;28118;52.388;9.452;2022-07-23T14:21:32;3.58;;;1.73;;
42488;SDS011;28118;52.388;9.452;2022-07-23T14:23:59;1.77;;;1.08;;
42488;SDS011;28118;52.388;9.452;2022-07-23T14:26:25;1.45;;;0.93;;
42488;SDS011;28118;52.388;9.452;2022-07-23T14:28:53;2.30;;;1.83;;
42488;SDS011;28118;52.388;9.452;2022-07-23T14:31:19;2.50;;;1.23;;
42488;SDS011;28118;52.388;9.452;2022-07-23T14:33:47;3.90;;;1.27;;
42488;SDS011;28118;52.388;9.452;2022-07-23T14:36:14;1.30;;;0.90;;
42488;SDS011;28118;52.388;9.452;2022-07-23T14:38:41;2.00;;;1.55;;
42488;SDS011;28118;52.388;9.452;2022-07-23T14:41:08;1.80;;;1.17;;
42488;SDS011;28118;52.388;9.452;2022-07-23T14:43:36;2.85;;;1.23;;
42488;SDS011;28118;52.388;9.452;2022-07-23T14:46:04;3.05;;;1.17;;
42488;SDS011;28118;52.388;9.452;2022-07-23T14:48:31;2.53;;;1.50;;
42488;SDS011;28118;52.388;9.452;2022-07-23T14:50:58;1.70;;;0.82;;
42488;SDS011;28118;52.388;9.452;2022-07-23T14:53:24;1.30;;;0.93;;
42488;SDS011;28118;52.388;9.452;2022-07-23T14:55:51;1.52;;;1.13;;
42488;SDS011;28118;52.388;9.452;2022-07-23T14:58:20;1.70;;;0.95;;
42488;SDS011;28118;52.388;9.452;2022-07-23T15:00:47;1.23;;;0.93;;
42488;SDS011;28118;52.388;9.452;2022-07-23T15:03:14;1.85;;;1.23;;
42488;SDS011;28118;52.388;9.452;2022-07-23T15:05:41;2.08;;;1.13;;
42488;SDS011;28118;52.388;9.452;2022-07-23T15:08:08;3.28;;;1.23;;
42488;SDS011;28118;52.388;9.452;2022-07-23T15:10:35;3.45;;;1.40;;
42488;SDS011;28118;52.388;9.452;2022-07-23T15:13:03;2.38;;;0.82;;
42488;SDS011;28118;52.388;9.452;2022-07-23T15:15:30;2.90;;;1.13;;
42488;SDS011;28118;52.388;9.452;2022-07-23T15:17:57;2.20;;;1.00;;
42488;SDS011;28118;52.388;9.452;2022-07-23T15:20:24;1.17;;;0.73;;
42488;SDS011;28118;52.388;9.452;2022-07-23T15:23:04;3.30;;;1.02;;
42488;SDS011;28118;52.388;9.452;2022-07-23T15:25:33;1.20;;;0.65;;
42488;SDS011;28118;52.388;9.452;2022-07-23T15:28:01;6.85;;;1.65;;
42488;SDS011;28118;52.388;9.452;2022-07-23T15:30:28;4.18;;;1.05;;
42488;SDS011;28118;52.388;9.452;2022-07-23T15:32:55;4.85;;;0.80;;
42488;SDS011;28118;52.388;9.452;2022-07-23T15:35:23;1.58;;;0.80;;
42488;SDS011;28118;52.388;9.452;2022-07-23T15:37:50;2.95;;;1.15;;
42488;SDS011;28118;52.388;9.452;2022-07-23T15:40:17;2.97;;;1.10;;
42488;SDS011;28118;52.388;9.452;2022-07-23T15:42:44;1.75;;;1.25;;
42488;SDS011;28118;52.388;9.452;2022-07-23T15:45:11;1.33;;;1.10;;
42488;SDS011;28118;52.388;9.452;2022-07-23T15:47:40;1.25;;;0.88;;
42488;SDS011;28118;52.388;9.452;2022-07-23T15:50:09;1.67;;;1.08;;
42488;SDS011;28118;52.388;9.452;2022-07-23T15:52:36;2.22;;;0.90;;
42488;SDS011;28118;52.388;9.452;2022-07-23T15:55:04;2.28;;;1.20;;